Terminal Aerodrome Forecast
Issued by NWS

Home | Current Version | Previous Version | Text Only | Print | Product List | Glossary On
Versions: 1 2 3 4 5 6 7 8 9 10 11 12 13 14 15 16 17
514
FTUS43 KMQT 270527
TAFCMX
TAF
KCMX 270527Z 2706/2806 34004KT 2SM BR BKN003
      TEMPO 2706/2708 6SM BR SCT003 BKN015
     FM271400 35006KT 2SM BR OVC008
     FM271600 35006KT 3SM BR BKN015
     FM271700 33006KT P6SM BKN025
     FM271900 33006KT P6SM BKN035=

USA.gov is the U.S. government's official web portal to all federal, state and local government web resources and services.